Time;durP1;ratioP1;P1;durP2;ratioP2;P2;SDS_P1;SDS_P2;PMS_P1;PMS_P2;Temp;Humidity;BMP_temperature;BMP_pressure;BME280_temperature;BME280_humidity;BME280_pressure;Samples;Min_cycle;Max_cycle;Signal;HPM_P1;HPM_P2
2022/07/29 00:00:53;;;;;;;;;;;20.20;99.90;;;;;;4113284;28;19929;-56
2022/07/29 00:02:55;;;;;;;;;;;20.20;99.90;;;;;;4112509;28;19922;-57
2022/07/29 00:04:58;;;;;;;;;;;20.20;99.90;;;;;;4112687;28;19926;-57
2022/07/29 00:07:00;;;;;;;;;;;20.30;99.90;;;;;;4123071;28;19922;-56
2022/07/29 00:09:02;;;;;;;;;;;20.30;99.90;;;;;;4126175;28;19928;-57
2022/07/29 00:11:04;;;;;;;;;;;20.30;99.90;;;;;;4115451;28;19951;-56
2022/07/29 00:13:06;;;;;;;;;;;20.30;99.90;;;;;;4128586;28;19925;-56
2022/07/29 00:15:08;;;;;;;;;;;20.30;99.90;;;;;;4128706;28;19933;-57
2022/07/29 00:17:10;;;;;;;;;;;20.40;99.90;;;;;;4114811;28;19929;-56
2022/07/29 00:19:13;;;;;;;;;;;20.40;99.90;;;;;;4128346;28;20031;-58
2022/07/29 00:21:15;;;;;;;;;;;20.40;99.90;;;;;;4128837;28;20016;-57
2022/07/29 00:23:17;;;;;;;;;;;20.30;99.90;;;;;;4113895;28;20671;-57
2022/07/29 00:25:19;;;;;;;;;;;20.30;99.90;;;;;;4117421;28;19922;-56
2022/07/29 00:27:21;;;;;;;;;;;20.40;99.90;;;;;;4128551;28;19922;-57
2022/07/29 00:29:23;;;;;;;;;;;20.40;99.90;;;;;;4128314;28;19972;-57
2022/07/29 00:31:35;;;;;;;;;;;20.20;99.90;;;;;;4124544;28;19922;-56
2022/07/29 00:33:37;;;;;;;;;;;20.30;99.90;;;;;;4112881;28;19926;-56
2022/07/29 00:35:45;;;;;;;;;;;20.20;99.90;;;;;;4123312;28;20374;-57
2022/07/29 00:37:47;;;;;;;;;;;20.10;99.90;;;;;;4125633;28;20389;-57
2022/07/29 00:39:49;;;;;;;;;;;20.10;99.90;;;;;;4127348;28;19933;-56
2022/07/29 00:41:51;;;;;;;;;;;20.00;99.90;;;;;;4121727;28;19925;-56
2022/07/29 00:43:53;;;;;;;;;;;20.10;99.90;;;;;;4127947;28;20032;-57
2022/07/29 00:45:55;;;;;;;;;;;20.10;99.90;;;;;;4128777;28;19922;-57
2022/07/29 00:47:57;;;;;;;;;;;20.00;99.90;;;;;;4121136;28;19925;-56
2022/07/29 00:49:59;;;;;;;;;;;19.90;99.90;;;;;;4118755;28;20388;-57
2022/07/29 00:52:02;;;;;;;;;;;19.80;99.90;;;;;;4128221;28;20016;-56
2022/07/29 00:54:04;;;;;;;;;;;19.70;99.90;;;;;;4122492;28;20125;-57
2022/07/29 00:56:06;;;;;;;;;;;19.70;99.90;;;;;;4112581;28;19925;-57
2022/07/29 00:58:08;;;;;;;;;;;19.60;99.90;;;;;;4123676;28;20377;-57
2022/07/29 01:00:12;;;;;;;;;;;19.60;99.90;;;;;;4124899;28;19922;-56
2022/07/29 01:02:14;;;;;;;;;;;19.50;99.90;;;;;;4112338;28;20017;-55
2022/07/29 01:04:16;;;;;;;;;;;19.60;99.90;;;;;;4122561;28;19925;-57
2022/07/29 01:06:18;;;;;;;;;;;19.60;99.90;;;;;;4128066;28;20275;-58
2022/07/29 01:08:21;;;;;;;;;;;19.60;99.90;;;;;;4128319;28;19949;-56
2022/07/29 01:10:24;;;;;;;;;;;19.60;99.90;;;;;;4128481;28;19921;-56
2022/07/29 01:12:28;;;;;;;;;;;19.50;99.90;;;;;;4128204;28;20507;-56
2022/07/29 01:14:31;;;;;;;;;;;19.50;99.90;;;;;;4129370;28;19929;-56
2022/07/29 01:16:35;;;;;;;;;;;19.50;99.90;;;;;;4128103;28;20350;-57
2022/07/29 01:18:39;;;;;;;;;;;19.50;99.90;;;;;;4130689;28;20311;-57
2022/07/29 01:21:02;;;;;;;;;;;19.50;99.90;;;;;;4130842;28;20062;-57
2022/07/29 01:23:13;;;;;;;;;;;19.60;99.90;;;;;;4145755;28;20393;-56
2022/07/29 01:25:36;;;;;;;;;;;19.60;99.90;;;;;;4131142;28;20046;-57
2022/07/29 01:27:47;;;;;;;;;;;19.50;99.90;;;;;;4114979;28;20404;-58
2022/07/29 01:29:53;;;;;;;;;;;19.50;99.90;;;;;;4125296;28;20028;-57
2022/07/29 01:32:04;;;;;;;;;;;19.40;99.90;;;;;;4134392;28;19921;-57
2022/07/29 01:34:07;;;;;;;;;;;19.20;99.90;;;;;;4114615;28;20410;-57
2022/07/29 01:36:13;;;;;;;;;;;19.20;99.90;;;;;;4124948;28;19928;-56
2022/07/29 01:38:20;;;;;;;;;;;19.20;99.90;;;;;;4130370;28;20467;-57
2022/07/29 01:40:24;;;;;;;;;;;19.30;99.90;;;;;;4130537;28;19926;-56
2022/07/29 01:42:30;;;;;;;;;;;19.40;99.90;;;;;;4121080;28;19926;-56
2022/07/29 01:44:39;;;;;;;;;;;19.50;99.90;;;;;;4128547;28;19929;-56
2022/07/29 01:46:44;;;;;;;;;;;19.50;99.90;;;;;;4130654;28;19926;-56
2022/07/29 01:48:48;;;;;;;;;;;19.40;99.90;;;;;;4120030;28;19980;-56
2022/07/29 01:50:53;;;;;;;;;;;19.30;99.90;;;;;;4127894;28;19929;-57
2022/07/29 01:52:59;;;;;;;;;;;19.30;99.90;;;;;;4114512;28;19930;-57
2022/07/29 01:55:07;;;;;;;;;;;19.30;99.90;;;;;;4122313;28;20381;-56
2022/07/29 01:57:10;;;;;;;;;;;19.30;99.90;;;;;;4130595;28;20000;-57
2022/07/29 01:59:13;;;;;;;;;;;19.30;99.90;;;;;;4114004;28;19946;-57
2022/07/29 02:01:16;;;;;;;;;;;19.30;99.90;;;;;;4121350;28;19964;-56
2022/07/29 02:03:18;;;;;;;;;;;19.20;99.90;;;;;;4130487;28;20159;-57
2022/07/29 02:05:22;;;;;;;;;;;19.10;99.90;;;;;;4115914;28;19926;-57
2022/07/29 02:07:26;;;;;;;;;;;19.10;99.90;;;;;;4118963;28;19929;-57
2022/07/29 02:09:29;;;;;;;;;;;19.10;99.90;;;;;;4130538;28;19933;-57
2022/07/29 02:11:33;;;;;;;;;;;19.20;99.90;;;;;;4130077;28;19961;-56
2022/07/29 02:13:36;;;;;;;;;;;19.10;99.90;;;;;;4128892;28;19929;-57
2022/07/29 02:15:40;;;;;;;;;;;19.00;99.90;;;;;;4129627;28;20413;-56
2022/07/29 02:17:50;;;;;;;;;;;19.00;99.90;;;;;;4125828;28;19921;-56
2022/07/29 02:19:55;;;;;;;;;;;19.00;99.90;;;;;;4128700;28;19922;-56
2022/07/29 02:21:58;;;;;;;;;;;19.00;99.90;;;;;;4135529;28;20029;-57
2022/07/29 02:24:01;;;;;;;;;;;19.00;99.90;;;;;;4118098;28;20025;-56
2022/07/29 02:26:03;;;;;;;;;;;19.10;99.90;;;;;;4115112;28;19928;-56
2022/07/29 02:28:06;;;;;;;;;;;19.00;99.90;;;;;;4130145;28;19976;-57
2022/07/29 02:30:09;;;;;;;;;;;18.80;99.90;;;;;;4121583;28;19926;-57
2022/07/29 02:32:13;;;;;;;;;;;18.80;99.90;;;;;;4113833;28;19922;-56
2022/07/29 02:34:16;;;;;;;;;;;18.80;99.90;;;;;;4129580;28;19925;-57
2022/07/29 02:36:24;;;;;;;;;;;18.80;99.90;;;;;;4123002;28;20021;-57
2022/07/29 02:40:50;;;;;;;;;;;18.70;99.90;;;;;;4111968;28;19937;-56
2022/07/29 02:42:52;;;;;;;;;;;18.80;99.90;;;;;;4114000;28;20252;-57
2022/07/29 02:44:54;;;;;;;;;;;18.70;99.90;;;;;;4130076;28;19926;-57
2022/07/29 02:47:10;;;;;;;;;;;18.80;99.90;;;;;;4129755;28;19964;-57
2022/07/29 02:49:18;;;;;;;;;;;18.70;99.90;;;;;;4122569;28;19921;-56
2022/07/29 02:51:27;;;;;;;;;;;18.60;99.90;;;;;;4130017;28;19953;-56
2022/07/29 02:53:47;;;;;;;;;;;18.60;99.90;;;;;;4128613;28;19961;-56
2022/07/29 02:55:55;;;;;;;;;;;18.60;99.90;;;;;;4121280;28;19949;-56
2022/07/29 02:58:15;;;;;;;;;;;18.60;99.90;;;;;;4128280;28;19925;-57
2022/07/29 03:00:17;;;;;;;;;;;18.60;99.90;;;;;;4113725;28;19922;-57
2022/07/29 03:02:20;;;;;;;;;;;18.50;99.90;;;;;;4113081;28;20005;-56
2022/07/29 03:04:24;;;;;;;;;;;18.50;99.90;;;;;;4113222;28;20279;-57
2022/07/29 03:06:27;;;;;;;;;;;18.60;99.90;;;;;;4113362;28;19926;-57
2022/07/29 03:08:39;;;;;;;;;;;18.60;99.90;;;;;;4126786;28;19940;-56
2022/07/29 03:10:44;;;;;;;;;;;18.50;99.90;;;;;;4127081;28;20780;-56
2022/07/29 03:12:46;;;;;;;;;;;18.60;99.90;;;;;;4113363;28;20283;-57
2022/07/29 03:14:48;;;;;;;;;;;18.60;99.90;;;;;;4116745;28;19925;-56
2022/07/29 03:16:51;;;;;;;;;;;18.60;99.90;;;;;;4129195;28;19921;-57
2022/07/29 03:18:53;;;;;;;;;;;18.50;99.90;;;;;;4128562;28;19922;-56
2022/07/29 03:20:55;;;;;;;;;;;18.50;99.90;;;;;;4123114;28;19922;-56
2022/07/29 03:22:57;;;;;;;;;;;18.40;99.90;;;;;;4113078;28;19980;-56
2022/07/29 03:25:07;;;;;;;;;;;18.40;99.90;;;;;;4126020;28;19988;-57
2022/07/29 03:27:09;;;;;;;;;;;18.30;99.90;;;;;;4124051;28;19926;-56
2022/07/29 03:29:11;;;;;;;;;;;18.30;99.90;;;;;;4113180;28;19922;-56
2022/07/29 03:31:14;;;;;;;;;;;18.30;99.90;;;;;;4125148;28;19921;-56
2022/07/29 03:33:16;;;;;;;;;;;18.30;99.90;;;;;;4126188;28;19930;-57
2022/07/29 03:35:19;;;;;;;;;;;18.40;99.90;;;;;;4111266;28;20389;-57
2022/07/29 03:37:21;;;;;;;;;;;18.40;99.90;;;;;;4122837;28;19969;-58
2022/07/29 03:39:26;;;;;;;;;;;18.50;99.90;;;;;;4128356;28;19957;-56
2022/07/29 03:41:30;;;;;;;;;;;18.60;99.90;;;;;;4112690;28;19922;-57
2022/07/29 03:43:34;;;;;;;;;;;18.60;99.90;;;;;;4121023;28;19929;-56
2022/07/29 03:45:37;;;;;;;;;;;18.60;99.90;;;;;;4128872;28;19972;-57
2022/07/29 03:47:42;;;;;;;;;;;18.60;99.90;;;;;;4127464;28;19929;-57
2022/07/29 03:49:52;;;;;;;;;;;18.50;99.90;;;;;;4126433;28;19922;-56
2022/07/29 03:51:54;;;;;;;;;;;18.40;99.90;;;;;;4129027;28;20476;-55
2022/07/29 03:53:56;;;;;;;;;;;18.40;99.90;;;;;;4128746;28;19932;-57
2022/07/29 03:56:00;;;;;;;;;;;18.40;99.90;;;;;;4122831;28;20330;-57
2022/07/29 03:58:02;;;;;;;;;;;18.30;99.90;;;;;;4126277;28;20293;-56
2022/07/29 04:00:06;;;;;;;;;;;18.20;99.90;;;;;;4115237;28;19922;-58
2022/07/29 04:02:09;;;;;;;;;;;18.10;99.90;;;;;;4112625;28;20009;-57
2022/07/29 04:04:11;;;;;;;;;;;17.90;99.90;;;;;;4112563;28;20370;-55
2022/07/29 04:06:14;;;;;;;;;;;17.80;99.90;;;;;;4123689;28;19921;-56
2022/07/29 04:08:16;;;;;;;;;;;17.70;99.90;;;;;;4128498;28;20032;-55
2022/07/29 04:10:22;;;;;;;;;;;17.60;99.90;;;;;;4127368;28;19928;-56
2022/07/29 04:12:30;;;;;;;;;;;17.50;99.90;;;;;;4128528;28;20440;-56
2022/07/29 04:14:33;;;;;;;;;;;17.50;99.90;;;;;;4124343;28;19928;-56
2022/07/29 04:16:35;;;;;;;;;;;17.60;99.90;;;;;;4129205;28;20032;-56
2022/07/29 04:18:37;;;;;;;;;;;17.60;99.90;;;;;;4125942;28;19922;-57
2022/07/29 04:20:39;;;;;;;;;;;17.60;99.90;;;;;;4129374;28;19929;-56
2022/07/29 04:22:41;;;;;;;;;;;17.70;99.90;;;;;;4118514;28;20329;-56
2022/07/29 04:24:43;;;;;;;;;;;17.60;99.90;;;;;;4127164;28;19922;-56
2022/07/29 04:26:45;;;;;;;;;;;17.60;99.90;;;;;;4128367;28;19922;-55
2022/07/29 04:28:47;;;;;;;;;;;17.60;99.90;;;;;;4115359;28;19953;-57
2022/07/29 04:30:49;;;;;;;;;;;17.50;99.90;;;;;;4115991;28;19948;-56
2022/07/29 04:32:51;;;;;;;;;;;17.60;99.90;;;;;;4128039;28;20016;-56
2022/07/29 04:34:53;;;;;;;;;;;17.70;99.90;;;;;;4127572;28;20429;-56
2022/07/29 04:36:55;;;;;;;;;;;17.80;99.90;;;;;;4127993;28;20286;-56
2022/07/29 04:38:57;;;;;;;;;;;17.90;99.90;;;;;;4128490;28;20417;-56
2022/07/29 04:40:59;;;;;;;;;;;18.00;99.90;;;;;;4119381;28;19929;-57
2022/07/29 04:43:02;;;;;;;;;;;18.00;99.90;;;;;;4114437;28;19926;-57
2022/07/29 04:45:06;;;;;;;;;;;18.00;99.90;;;;;;4112353;28;19933;-57
2022/07/29 04:47:08;;;;;;;;;;;18.00;99.90;;;;;;4120402;28;19925;-56
2022/07/29 04:49:10;;;;;;;;;;;18.00;99.90;;;;;;4131188;28;19925;-56
2022/07/29 04:51:13;;;;;;;;;;;17.90;99.90;;;;;;4129797;28;20381;-56
2022/07/29 04:53:15;;;;;;;;;;;18.00;99.90;;;;;;4126774;28;19977;-56
2022/07/29 04:55:17;;;;;;;;;;;17.90;99.90;;;;;;4115126;28;20409;-57
2022/07/29 04:57:19;;;;;;;;;;;17.90;99.90;;;;;;4126925;28;19929;-57
2022/07/29 04:59:21;;;;;;;;;;;17.90;99.90;;;;;;4128677;28;19984;-56
2022/07/29 05:01:23;;;;;;;;;;;18.00;99.90;;;;;;4115389;28;19921;-56
2022/07/29 05:03:25;;;;;;;;;;;18.10;99.90;;;;;;4124445;28;19926;-55
2022/07/29 05:05:26;;;;;;;;;;;18.10;99.90;;;;;;4131173;28;20020;-55
2022/07/29 05:07:28;;;;;;;;;;;18.10;99.90;;;;;;4120270;28;19972;-56
2022/07/29 05:09:32;;;;;;;;;;;18.20;99.90;;;;;;4131110;28;20485;-55
2022/07/29 05:11:33;;;;;;;;;;;18.20;99.90;;;;;;4131438;28;19925;-56
2022/07/29 05:13:36;;;;;;;;;;;18.20;99.90;;;;;;4130644;28;19922;-56
2022/07/29 05:15:46;;;;;;;;;;;18.20;99.90;;;;;;4129007;28;20472;-57
2022/07/29 05:17:48;;;;;;;;;;;18.10;99.90;;;;;;4130235;28;19922;-58
2022/07/29 05:19:51;;;;;;;;;;;18.20;99.90;;;;;;4126627;28;19930;-58
2022/07/29 05:21:54;;;;;;;;;;;18.10;99.90;;;;;;4127513;28;19956;-55
2022/07/29 05:23:56;;;;;;;;;;;18.20;99.90;;;;;;4130812;28;19948;-57
2022/07/29 05:25:58;;;;;;;;;;;18.20;99.90;;;;;;4119480;28;19925;-57
2022/07/29 05:28:00;;;;;;;;;;;18.20;99.90;;;;;;4116862;28;20402;-56
2022/07/29 05:30:03;;;;;;;;;;;18.20;99.90;;;;;;4129937;28;19921;-57
2022/07/29 05:32:05;;;;;;;;;;;18.30;99.90;;;;;;4128962;28;20456;-57
2022/07/29 05:34:06;;;;;;;;;;;18.30;99.90;;;;;;4128912;28;19922;-57
2022/07/29 05:36:08;;;;;;;;;;;18.30;99.90;;;;;;4114859;28;19930;-57
2022/07/29 05:38:10;;;;;;;;;;;18.40;99.90;;;;;;4114162;28;20357;-57
2022/07/29 05:40:12;;;;;;;;;;;18.40;99.90;;;;;;4114592;28;20333;-56
2022/07/29 05:42:14;;;;;;;;;;;18.50;99.90;;;;;;4128792;28;19992;-56
2022/07/29 05:44:17;;;;;;;;;;;18.50;99.90;;;;;;4126013;28;19922;-56
2022/07/29 05:46:19;;;;;;;;;;;18.50;99.90;;;;;;4114892;28;19932;-56
2022/07/29 05:48:21;;;;;;;;;;;18.60;99.90;;;;;;4126186;28;20020;-58
2022/07/29 05:50:23;;;;;;;;;;;18.70;99.90;;;;;;4130320;28;20340;-56
2022/07/29 05:52:26;;;;;;;;;;;18.70;99.90;;;;;;4130061;28;19944;-57
2022/07/29 05:54:28;;;;;;;;;;;19.00;99.90;;;;;;4119727;28;19973;-56
2022/07/29 05:56:30;;;;;;;;;;;19.10;99.90;;;;;;4114730;28;20506;-56
2022/07/29 05:58:32;;;;;;;;;;;19.20;99.90;;;;;;4129869;28;19926;-57
2022/07/29 06:00:34;;;;;;;;;;;19.50;99.90;;;;;;4129298;28;19921;-55
2022/07/29 06:02:36;;;;;;;;;;;19.70;99.90;;;;;;4130354;28;19922;-56
2022/07/29 06:04:38;;;;;;;;;;;19.60;99.90;;;;;;4128290;28;19933;-58
2022/07/29 06:06:40;;;;;;;;;;;19.70;99.90;;;;;;4130218;28;19926;-58
2022/07/29 06:08:42;;;;;;;;;;;19.70;99.90;;;;;;4130507;28;19934;-56
2022/07/29 06:10:45;;;;;;;;;;;19.80;99.90;;;;;;4116810;28;19996;-57
2022/07/29 06:12:47;;;;;;;;;;;20.10;99.90;;;;;;4130226;28;19930;-56
2022/07/29 06:14:49;;;;;;;;;;;20.20;99.90;;;;;;4129952;28;20161;-57
2022/07/29 06:16:55;;;;;;;;;;;20.10;99.90;;;;;;4119877;28;19933;-56
2022/07/29 06:18:57;;;;;;;;;;;20.10;99.90;;;;;;4123483;28;20397;-56
2022/07/29 06:20:59;;;;;;;;;;;20.10;99.90;;;;;;4130255;28;19973;-56
2022/07/29 06:23:04;;;;;;;;;;;20.10;99.90;;;;;;4121691;28;19922;-57
2022/07/29 06:25:06;;;;;;;;;;;20.10;99.90;;;;;;4112591;28;19922;-57
2022/07/29 06:27:09;;;;;;;;;;;20.20;99.90;;;;;;4124978;28;19972;-57
2022/07/29 06:29:11;;;;;;;;;;;20.30;99.90;;;;;;4123308;28;19926;-57
2022/07/29 06:31:13;;;;;;;;;;;20.60;99.90;;;;;;4113989;28;19922;-56
2022/07/29 06:33:16;;;;;;;;;;;21.00;99.90;;;;;;4127253;28;19956;-57
2022/07/29 06:35:18;;;;;;;;;;;21.00;99.90;;;;;;4125413;28;19926;-57
2022/07/29 06:37:40;;;;;;;;;;;20.90;99.90;;;;;;4114043;28;20299;-56
2022/07/29 06:39:42;;;;;;;;;;;21.10;99.90;;;;;;4127993;28;19929;-57
2022/07/29 06:41:46;;;;;;;;;;;21.20;99.90;;;;;;4124939;28;19929;-58
2022/07/29 06:43:48;;;;;;;;;;;21.30;99.90;;;;;;4121619;28;20400;-58
2022/07/29 06:45:53;;;;;;;;;;;21.50;99.90;;;;;;4129152;28;20012;-57
2022/07/29 06:47:55;;;;;;;;;;;21.60;99.90;;;;;;4126214;28;19930;-57
2022/07/29 06:49:57;;;;;;;;;;;21.70;99.90;;;;;;4120067;28;19932;-58
2022/07/29 06:51:59;;;;;;;;;;;21.80;99.90;;;;;;4128457;28;19964;-56
2022/07/29 06:54:02;;;;;;;;;;;21.80;99.90;;;;;;4129770;28;20349;-57
2022/07/29 06:56:06;;;;;;;;;;;22.00;99.90;;;;;;4129367;28;20381;-57
2022/07/29 06:58:08;;;;;;;;;;;22.20;99.90;;;;;;4121068;28;19929;-57
2022/07/29 07:00:11;;;;;;;;;;;22.60;99.90;;;;;;4120352;28;19922;-57
2022/07/29 07:02:14;;;;;;;;;;;23.00;99.90;;;;;;4129614;28;19956;-56
2022/07/29 07:04:16;;;;;;;;;;;23.20;99.90;;;;;;4122682;28;19926;-58
2022/07/29 07:06:18;;;;;;;;;;;23.30;99.90;;;;;;4112042;28;20418;-58
2022/07/29 07:08:20;;;;;;;;;;;23.20;99.90;;;;;;4126898;28;19993;-59
2022/07/29 07:10:22;;;;;;;;;;;23.10;99.90;;;;;;4127316;28;20037;-57
2022/07/29 07:12:25;;;;;;;;;;;23.10;99.90;;;;;;4129518;28;19925;-57
2022/07/29 07:14:27;;;;;;;;;;;23.30;99.90;;;;;;4129303;28;19922;-57
2022/07/29 07:16:30;;;;;;;;;;;23.30;99.90;;;;;;4126972;28;20365;-58
2022/07/29 07:18:32;;;;;;;;;;;23.90;99.90;;;;;;4126278;28;20012;-57
2022/07/29 07:20:35;;;;;;;;;;;24.30;99.90;;;;;;4129005;28;19926;-57
2022/07/29 07:22:37;;;;;;;;;;;24.10;99.90;;;;;;4128933;28;19921;-57
2022/07/29 07:24:39;;;;;;;;;;;24.30;99.90;;;;;;4111572;28;19937;-57
2022/07/29 07:26:41;;;;;;;;;;;24.70;99.90;;;;;;4120222;28;19932;-56
2022/07/29 07:28:43;;;;;;;;;;;24.90;99.90;;;;;;4129179;28;19968;-58
2022/07/29 07:30:45;;;;;;;;;;;24.80;99.90;;;;;;4114468;28;19954;-57
2022/07/29 07:32:47;;;;;;;;;;;25.00;99.90;;;;;;4118106;28;19922;-57
2022/07/29 07:34:49;;;;;;;;;;;25.10;99.90;;;;;;4129021;28;20321;-57
2022/07/29 07:36:51;;;;;;;;;;;25.50;99.90;;;;;;4115712;28;19965;-57
2022/07/29 07:38:53;;;;;;;;;;;25.50;99.90;;;;;;4115569;28;19965;-57
2022/07/29 07:40:55;;;;;;;;;;;25.40;99.90;;;;;;4127162;28;20032;-57
2022/07/29 07:42:57;;;;;;;;;;;25.10;99.90;;;;;;4120569;28;19977;-57
2022/07/29 07:44:59;;;;;;;;;;;25.20;99.90;;;;;;4129068;28;19932;-56
2022/07/29 07:47:19;;;;;;;;;;;25.30;99.90;;;;;;4129035;28;20861;-57
2022/07/29 07:49:21;;;;;;;;;;;25.60;99.90;;;;;;4120282;28;19926;-58
2022/07/29 07:51:23;;;;;;;;;;;26.30;99.90;;;;;;4128446;28;20404;-58
2022/07/29 07:53:25;;;;;;;;;;;26.40;99.90;;;;;;4129282;28;19969;-57
2022/07/29 07:55:27;;;;;;;;;;;26.50;99.90;;;;;;4121338;28;19922;-56
2022/07/29 07:57:30;;;;;;;;;;;26.40;99.90;;;;;;4128120;28;19976;-56
2022/07/29 07:59:32;;;;;;;;;;;26.80;99.90;;;;;;4129192;28;19961;-57
2022/07/29 08:01:34;;;;;;;;;;;26.70;99.90;;;;;;4122972;28;19976;-59
2022/07/29 08:03:56;;;;;;;;;;;26.60;99.90;;;;;;4112760;28;19930;-57
2022/07/29 08:05:58;;;;;;;;;;;26.60;99.90;;;;;;4128001;28;20013;-57
2022/07/29 08:08:00;;;;;;;;;;;26.90;99.90;;;;;;4128779;28;19930;-57
2022/07/29 08:10:02;;;;;;;;;;;27.10;99.90;;;;;;4128762;28;19922;-58
2022/07/29 08:12:05;;;;;;;;;;;27.00;99.90;;;;;;4128404;28;19928;-57
2022/07/29 08:14:08;;;;;;;;;;;27.50;99.90;;;;;;4128768;28;19928;-59
2022/07/29 08:16:14;;;;;;;;;;;27.80;99.90;;;;;;4128101;28;19981;-57
2022/07/29 08:18:17;;;;;;;;;;;28.20;99.90;;;;;;4123539;28;19972;-56
2022/07/29 08:20:19;;;;;;;;;;;28.60;99.90;;;;;;4119089;28;19925;-58
2022/07/29 08:22:21;;;;;;;;;;;28.60;99.90;;;;;;4127319;28;19921;-57
2022/07/29 08:26:43;;;;;;;;;;;28.20;99.90;;;;;;4127657;28;20382;-57
2022/07/29 08:28:48;;;;;;;;;;;28.20;99.90;;;;;;4130917;28;20305;-57
2022/07/29 08:30:50;;;;;;;;;;;28.30;99.90;;;;;;4124843;28;19926;-57
2022/07/29 08:32:52;;;;;;;;;;;28.30;99.90;;;;;;4116667;28;19981;-57
2022/07/29 08:34:56;;;;;;;;;;;28.60;99.90;;;;;;4131823;28;19925;-56
2022/07/29 08:36:58;;;;;;;;;;;28.80;99.90;;;;;;4123005;28;19929;-57
2022/07/29 08:39:01;;;;;;;;;;;28.80;99.90;;;;;;4059876;28;79556;-56
2022/07/29 08:41:03;;;;;;;;;;;28.80;99.90;;;;;;4143122;28;19921;-57
2022/07/29 08:43:06;;;;;;;;;;;28.70;99.90;;;;;;4141302;28;19926;-56
2022/07/29 08:45:08;;;;;;;;;;;28.40;99.90;;;;;;4147760;28;19948;-58
2022/07/29 08:47:13;;;;;;;;;;;28.50;99.90;;;;;;4137196;28;19930;-56
2022/07/29 08:49:16;;;;;;;;;;;28.60;99.90;;;;;;4143008;28;19921;-57
2022/07/29 08:51:19;;;;;;;;;;;28.90;99.90;;;;;;4141352;28;19928;-57
2022/07/29 08:53:21;;;;;;;;;;;28.80;99.90;;;;;;4140552;28;19931;-58
2022/07/29 08:55:23;;;;;;;;;;;28.90;99.90;;;;;;4139905;28;20461;-58
2022/07/29 08:57:25;;;;;;;;;;;28.90;99.90;;;;;;4139498;28;20355;-57
2022/07/29 08:59:30;;;;;;;;;;;29.40;99.90;;;;;;4137317;28;20342;-57
2022/07/29 09:01:33;;;;;;;;;;;29.40;99.90;;;;;;4148965;28;19955;-57
2022/07/29 09:03:38;;;;;;;;;;;29.60;99.90;;;;;;4145491;28;19926;-56
2022/07/29 09:05:47;;;;;;;;;;;29.30;99.90;;;;;;4135612;28;19925;-58
2022/07/29 09:07:49;;;;;;;;;;;29.80;99.90;;;;;;4137058;28;20016;-57
2022/07/29 09:09:52;;;;;;;;;;;29.60;99.40;;;;;;4142038;28;19929;-57
2022/07/29 09:11:54;;;;;;;;;;;29.70;99.90;;;;;;4140287;28;20020;-57
2022/07/29 09:13:56;;;;;;;;;;;29.80;99.90;;;;;;4137074;28;19945;-57
2022/07/29 09:15:58;;;;;;;;;;;29.70;97.90;;;;;;4143532;28;19927;-56
2022/07/29 09:18:00;;;;;;;;;;;30.10;98.20;;;;;;4142781;28;19953;-57
2022/07/29 09:20:09;;;;;;;;;;;30.40;97.90;;;;;;4146899;28;20587;-58
2022/07/29 09:22:11;;;;;;;;;;;30.10;97.70;;;;;;4146359;28;19936;-57
2022/07/29 09:24:13;;;;;;;;;;;30.10;96.80;;;;;;4143599;28;19929;-57
2022/07/29 09:26:16;;;;;;;;;;;29.80;96.10;;;;;;4130978;28;19922;-56
2022/07/29 09:28:18;;;;;;;;;;;30.00;96.80;;;;;;4130911;28;20400;-57
2022/07/29 09:30:22;;;;;;;;;;;30.20;96.50;;;;;;4132777;28;19929;-58
2022/07/29 09:32:29;;;;;;;;;;;30.10;97.50;;;;;;4147050;28;20424;-57
2022/07/29 09:34:31;;;;;;;;;;;30.50;97.50;;;;;;4146139;28;19925;-57
2022/07/29 09:36:44;;;;;;;;;;;30.60;97.20;;;;;;4134872;28;19944;-57
2022/07/29 09:38:56;;;;;;;;;;;30.60;97.40;;;;;;4131032;28;19972;-57
2022/07/29 09:41:01;;;;;;;;;;;30.60;96.50;;;;;;4130250;28;19921;-56
2022/07/29 09:43:10;;;;;;;;;;;30.30;95.90;;;;;;4131662;28;19921;-58
2022/07/29 09:45:12;;;;;;;;;;;30.30;96.80;;;;;;4130780;28;19953;-58
2022/07/29 09:47:15;;;;;;;;;;;30.40;97.30;;;;;;4133235;28;20286;-57
2022/07/29 09:49:17;;;;;;;;;;;30.60;97.70;;;;;;4141618;28;19929;-59
2022/07/29 09:51:19;;;;;;;;;;;30.70;96.50;;;;;;4136559;28;19926;-58
2022/07/29 09:53:34;;;;;;;;;;;30.70;98.10;;;;;;4141212;28;20374;-57
2022/07/29 09:55:49;;;;;;;;;;;30.70;99.10;;;;;;4138432;28;19921;-57
2022/07/29 09:57:53;;;;;;;;;;;31.00;97.90;;;;;;4140700;28;20419;-57
2022/07/29 09:59:56;;;;;;;;;;;30.60;97.20;;;;;;4138001;28;19968;-56
2022/07/29 10:01:58;;;;;;;;;;;30.60;97.50;;;;;;4141013;28;19921;-57
2022/07/29 10:04:00;;;;;;;;;;;30.90;97.00;;;;;;4145300;28;19964;-57
2022/07/29 10:06:06;;;;;;;;;;;31.30;96.90;;;;;;4140139;28;20406;-58
2022/07/29 10:08:10;;;;;;;;;;;30.80;96.60;;;;;;4134518;28;20429;-57
2022/07/29 10:10:18;;;;;;;;;;;31.20;96.70;;;;;;4147856;28;19939;-57
2022/07/29 10:12:20;;;;;;;;;;;31.50;96.00;;;;;;4143194;28;20415;-58
2022/07/29 10:14:22;;;;;;;;;;;31.60;96.30;;;;;;4133733;28;19926;-58
2022/07/29 10:16:26;;;;;;;;;;;31.30;97.10;;;;;;4130682;28;20201;-58
2022/07/29 10:18:29;;;;;;;;;;;31.00;95.30;;;;;;4140552;28;20403;-59
2022/07/29 10:20:31;;;;;;;;;;;31.40;95.80;;;;;;4146053;28;20325;-57
2022/07/29 10:22:33;;;;;;;;;;;32.00;96.90;;;;;;4135129;28;20024;-58
2022/07/29 10:24:53;;;;;;;;;;;32.00;95.50;;;;;;4136875;28;19921;-58
2022/07/29 10:26:56;;;;;;;;;;;31.90;94.10;;;;;;4140386;28;19932;-56
2022/07/29 10:28:59;;;;;;;;;;;31.90;94.70;;;;;;4141089;28;19928;-57
2022/07/29 10:31:12;;;;;;;;;;;31.70;95.10;;;;;;4141714;28;19932;-58
2022/07/29 10:33:21;;;;;;;;;;;31.60;93.30;;;;;;4129826;28;19925;-58
2022/07/29 10:35:43;;;;;;;;;;;31.60;93.30;;;;;;4141222;28;19925;-58
2022/07/29 10:38:04;;;;;;;;;;;31.90;95.00;;;;;;4134511;28;20396;-57
2022/07/29 10:42:42;;;;;;;;;;;32.10;93.00;;;;;;4144646;28;19929;-57
2022/07/29 10:44:44;;;;;;;;;;;31.50;93.90;;;;;;4145215;28;19931;-57
2022/07/29 10:46:47;;;;;;;;;;;31.40;94.20;;;;;;4140702;28;19941;-58
2022/07/29 10:49:04;;;;;;;;;;;31.70;93.90;;;;;;4129838;28;19964;-57
2022/07/29 10:51:08;;;;;;;;;;;31.70;93.70;;;;;;4138411;28;19922;-57
2022/07/29 10:53:12;;;;;;;;;;;32.20;92.20;;;;;;4136342;28;19930;-57
2022/07/29 10:55:31;;;;;;;;;;;32.60;92.20;;;;;;4141725;28;19921;-57
2022/07/29 10:57:34;;;;;;;;;;;32.60;92.60;;;;;;4135491;28;19961;-57
2022/07/29 10:59:57;;;;;;;;;;;32.90;93.30;;;;;;4133570;28;19922;-57
2022/07/29 11:02:00;;;;;;;;;;;33.20;91.00;;;;;;4136147;28;19925;-58
2022/07/29 11:04:40;;;;;;;;;;;33.20;91.80;;;;;;4129141;28;20352;-59
2022/07/29 11:07:01;;;;;;;;;;;33.00;91.30;;;;;;4135413;28;19963;-57
2022/07/29 11:09:19;;;;;;;;;;;32.50;91.20;;;;;;4128860;28;19922;-58
2022/07/29 11:11:36;;;;;;;;;;;33.00;90.70;;;;;;4145616;28;20341;-57
2022/07/29 11:13:47;;;;;;;;;;;33.60;91.50;;;;;;4143929;28;20394;-57
2022/07/29 11:15:54;;;;;;;;;;;33.90;91.70;;;;;;4145353;28;19925;-58
2022/07/29 11:18:00;;;;;;;;;;;33.40;91.70;;;;;;4145194;28;20408;-57
2022/07/29 11:20:28;;;;;;;;;;;32.70;89.50;;;;;;4145332;28;19929;-59
2022/07/29 11:22:33;;;;;;;;;;;33.20;91.00;;;;;;4139663;28;19961;-58
2022/07/29 11:24:35;;;;;;;;;;;33.60;89.90;;;;;;4129202;28;19921;-56
2022/07/29 11:26:37;;;;;;;;;;;33.20;86.80;;;;;;4141860;28;19925;-57
2022/07/29 11:28:48;;;;;;;;;;;32.70;85.00;;;;;;4141733;28;20154;-58
2022/07/29 11:30:51;;;;;;;;;;;32.70;88.00;;;;;;4128750;28;19995;-57
2022/07/29 11:32:53;;;;;;;;;;;32.80;86.90;;;;;;4141575;28;19921;-57
2022/07/29 11:35:10;;;;;;;;;;;33.40;88.10;;;;;;4142144;28;20292;-57
2022/07/29 11:37:19;;;;;;;;;;;33.50;86.10;;;;;;4128950;28;19930;-56
2022/07/29 11:39:30;;;;;;;;;;;33.40;86.20;;;;;;4142554;28;19922;-57
2022/07/29 11:41:38;;;;;;;;;;;33.60;86.90;;;;;;4144443;28;19925;-58
2022/07/29 11:43:46;;;;;;;;;;;33.50;83.30;;;;;;4143799;28;19987;-57
2022/07/29 11:45:48;;;;;;;;;;;32.80;85.80;;;;;;4138736;28;20448;-56
2022/07/29 11:47:52;;;;;;;;;;;32.90;84.10;;;;;;4132623;28;20027;-57
2022/07/29 11:49:58;;;;;;;;;;;32.80;83.10;;;;;;4144748;28;19929;-56
2022/07/29 11:52:02;;;;;;;;;;;32.90;83.00;;;;;;4143229;28;20278;-57
2022/07/29 11:54:05;;;;;;;;;;;33.30;82.80;;;;;;4142188;28;19921;-59
2022/07/29 11:56:08;;;;;;;;;;;33.50;80.80;;;;;;4128576;28;20024;-57
2022/07/29 11:58:10;;;;;;;;;;;33.60;80.00;;;;;;4138341;28;19922;-57
2022/07/29 12:00:20;;;;;;;;;;;33.10;78.60;;;;;;4137176;28;19932;-57
2022/07/29 12:02:22;;;;;;;;;;;33.10;82.60;;;;;;4141317;28;19925;-58
2022/07/29 12:04:51;;;;;;;;;;;33.30;78.70;;;;;;4139960;28;20336;-57
2022/07/29 12:06:54;;;;;;;;;;;33.10;78.20;;;;;;4141895;28;19957;-57
2022/07/29 12:08:56;;;;;;;;;;;33.50;82.10;;;;;;4144132;28;19928;-57
2022/07/29 12:10:59;;;;;;;;;;;33.80;78.50;;;;;;4143746;28;19932;-57